Time;durP1;ratioP1;P1;durP2;ratioP2;P2;SDS_P1;SDS_P2;PMS_P1;PMS_P2;Temp;Humidity;BMP_temperature;BMP_pressure;BME280_temperature;BME280_humidity;BME280_pressure;Samples;Min_cycle;Max_cycle;Signal;HPM_P1;HPM_P2
2022/07/24 00:00:09;;;;;;;6.25;2.63;;;16.50;99.90;;;;;;4817421;29;36929;-55
2022/07/24 00:02:37;;;;;;;4.13;2.42;;;16.50;99.90;;;;;;4818191;29;37689;-55
2022/07/24 00:05:05;;;;;;;6.32;2.55;;;16.50;99.90;;;;;;4815488;29;38179;-55
2022/07/24 00:07:35;;;;;;;6.93;2.80;;;16.50;99.90;;;;;;4817606;29;39865;-55
2022/07/24 00:10:02;;;;;;;5.57;2.65;;;16.50;99.90;;;;;;4817102;29;37874;-55
2022/07/24 00:12:29;;;;;;;3.90;2.58;;;16.50;99.90;;;;;;4818464;29;36656;-55
2022/07/24 00:14:57;;;;;;;5.38;2.65;;;16.50;99.90;;;;;;4815535;29;36427;-55
2022/07/24 00:17:24;;;;;;;7.20;2.92;;;16.40;99.90;;;;;;4816704;29;38513;-55
2022/07/24 00:19:51;;;;;;;5.03;2.45;;;16.40;99.90;;;;;;4817978;29;37748;-55
2022/07/24 00:22:19;;;;;;;4.53;2.40;;;16.40;99.90;;;;;;4817668;29;36461;-55
2022/07/24 00:24:48;;;;;;;5.68;2.67;;;16.40;99.90;;;;;;4816029;29;37985;-55
2022/07/24 00:27:15;;;;;;;4.97;2.67;;;16.30;99.90;;;;;;4816578;29;39157;-55
2022/07/24 00:29:42;;;;;;;4.80;2.45;;;16.30;99.90;;;;;;4823794;29;38810;-55
2022/07/24 00:32:10;;;;;;;5.38;2.65;;;16.30;99.90;;;;;;4835156;29;36235;-55
2022/07/24 00:34:37;;;;;;;5.47;2.67;;;16.30;99.90;;;;;;4834762;29;38728;-55
2022/07/24 00:37:04;;;;;;;11.35;2.80;;;16.30;99.90;;;;;;4835495;29;36777;-55
2022/07/24 00:39:32;;;;;;;8.73;3.00;;;16.20;99.90;;;;;;4835500;29;37857;-55
2022/07/24 00:42:00;;;;;;;4.70;2.63;;;16.20;99.90;;;;;;4835193;29;36633;-55
2022/07/24 00:44:28;;;;;;;6.70;2.58;;;16.20;99.90;;;;;;4834925;29;37822;-55
2022/07/24 00:46:55;;;;;;;4.95;2.58;;;16.10;99.90;;;;;;4835559;29;36827;-55
2022/07/24 00:49:23;;;;;;;4.47;2.40;;;16.10;99.90;;;;;;4835297;29;37681;-55
2022/07/24 00:51:53;;;;;;;7.63;2.95;;;16.10;99.90;;;;;;4836103;29;36852;-55
2022/07/24 00:54:21;;;;;;;6.10;3.10;;;16.00;99.90;;;;;;4836103;29;38158;-55
2022/07/24 00:56:51;;;;;;;5.95;2.50;;;16.00;99.90;;;;;;4833944;29;40409;-55
2022/07/24 00:59:20;;;;;;;4.68;3.00;;;16.00;99.90;;;;;;4835302;29;37783;-55
2022/07/24 01:01:49;;;;;;;6.10;2.90;;;16.00;99.90;;;;;;4837615;29;37463;-55
2022/07/24 01:04:17;;;;;;;5.28;2.80;;;16.00;99.90;;;;;;4840400;29;38462;-55
2022/07/24 01:06:45;;;;;;;5.50;2.90;;;16.00;99.90;;;;;;4841028;29;38717;-55
2022/07/24 01:09:13;;;;;;;5.38;2.90;;;16.00;99.90;;;;;;4840787;29;39491;-55
2022/07/24 01:11:40;;;;;;;4.20;2.85;;;16.00;99.90;;;;;;4840975;29;35527;-55
2022/07/24 01:14:10;;;;;;;6.95;3.20;;;16.00;99.90;;;;;;4841262;29;37197;-55
2022/07/24 01:16:39;;;;;;;10.10;3.00;;;16.00;99.90;;;;;;4840050;29;38683;-55
2022/07/24 01:19:07;;;;;;;6.22;3.08;;;15.90;99.90;;;;;;4841373;29;37592;-55
2022/07/24 01:21:36;;;;;;;6.85;2.97;;;15.90;99.90;;;;;;4842121;29;36307;-54
2022/07/24 01:24:03;;;;;;;9.35;3.30;;;15.90;99.90;;;;;;4840063;29;38325;-55
2022/07/24 01:26:31;;;;;;;5.55;3.42;;;15.90;99.90;;;;;;4840341;29;38433;-55
2022/07/24 01:28:59;;;;;;;6.22;3.10;;;15.90;99.90;;;;;;4839338;29;37620;-55
2022/07/24 01:31:26;;;;;;;5.82;3.20;;;15.90;99.90;;;;;;4839311;29;36711;-55
2022/07/24 01:33:53;;;;;;;4.80;2.67;;;15.80;99.90;;;;;;4840723;29;37243;-55
2022/07/24 01:36:20;;;;;;;6.55;3.40;;;15.80;99.90;;;;;;4840200;29;39252;-55
2022/07/24 01:38:49;;;;;;;6.32;3.20;;;15.80;99.90;;;;;;4840446;29;38493;-55
2022/07/24 01:41:16;;;;;;;7.15;3.28;;;15.80;99.90;;;;;;4840608;29;37003;-55
2022/07/24 01:43:44;;;;;;;8.13;3.35;;;15.80;99.90;;;;;;4840720;29;38311;-55
2022/07/24 01:46:11;;;;;;;9.27;3.13;;;15.80;99.90;;;;;;4839988;29;38906;-55
2022/07/24 01:48:39;;;;;;;9.40;3.70;;;15.80;99.90;;;;;;4839325;29;38588;-55
2022/07/24 01:51:07;;;;;;;6.25;3.20;;;15.80;99.90;;;;;;4840996;29;36255;-55
2022/07/24 01:53:34;;;;;;;6.47;3.22;;;15.70;99.90;;;;;;4840313;29;37828;-55
2022/07/24 01:56:04;;;;;;;5.15;3.13;;;15.70;99.90;;;;;;4839939;29;39106;-55
2022/07/24 01:58:31;;;;;;;6.70;3.17;;;15.70;99.90;;;;;;4841064;29;36989;-55
2022/07/24 02:00:59;;;;;;;8.55;3.50;;;15.70;99.90;;;;;;4840417;29;37493;-55
2022/07/24 02:03:26;;;;;;;5.95;2.97;;;15.70;99.90;;;;;;4840087;29;37227;-55
2022/07/24 02:05:53;;;;;;;7.25;3.50;;;15.70;99.90;;;;;;4841104;29;38447;-55
2022/07/24 02:08:21;;;;;;;5.93;3.33;;;15.70;99.90;;;;;;4839986;29;38343;-55
2022/07/24 02:10:48;;;;;;;6.00;3.88;;;15.70;99.90;;;;;;4840701;29;35254;-55
2022/07/24 02:13:17;;;;;;;7.57;3.80;;;15.70;99.90;;;;;;4838139;29;37715;-55
2022/07/24 02:15:45;;;;;;;6.38;3.25;;;15.70;99.90;;;;;;4837022;29;39660;-55
2022/07/24 02:18:12;;;;;;;6.22;3.72;;;15.70;99.90;;;;;;4837294;29;37878;-55
2022/07/24 02:20:39;;;;;;;7.90;3.85;;;15.70;99.90;;;;;;4837177;29;38316;-55
2022/07/24 02:23:06;;;;;;;7.93;3.72;;;15.70;99.90;;;;;;4836764;29;37602;-55
2022/07/24 02:25:34;;;;;;;6.75;3.65;;;15.80;99.90;;;;;;4836927;29;38070;-55
2022/07/24 02:28:01;;;;;;;7.85;4.10;;;15.80;99.90;;;;;;4837477;29;40057;-55
2022/07/24 02:30:30;;;;;;;7.15;4.03;;;15.90;99.90;;;;;;4837153;29;36208;-55
2022/07/24 02:32:57;;;;;;;6.53;3.78;;;16.00;99.90;;;;;;4836627;29;37958;-55
2022/07/24 02:35:24;;;;;;;8.23;4.10;;;16.00;99.90;;;;;;4838053;29;36922;-55
2022/07/24 02:37:52;;;;;;;7.57;4.03;;;16.00;99.90;;;;;;4836873;29;37806;-55
2022/07/24 02:40:20;;;;;;;7.68;4.28;;;16.10;99.90;;;;;;4837343;29;36673;-55
2022/07/24 02:42:47;;;;;;;5.95;3.92;;;16.10;99.90;;;;;;4836834;29;37492;-55
2022/07/24 02:45:15;;;;;;;6.00;4.25;;;16.10;99.90;;;;;;4836889;29;37370;-55
2022/07/24 02:47:52;;;;;;;6.35;4.22;;;16.10;99.90;;;;;;4836777;29;39100;-55
2022/07/24 02:50:21;;;;;;;6.72;3.75;;;16.00;99.90;;;;;;4837349;29;37178;-55
2022/07/24 02:52:49;;;;;;;7.85;4.40;;;16.00;99.90;;;;;;4836285;29;37850;-54
2022/07/24 02:55:16;;;;;;;9.15;4.82;;;16.00;99.90;;;;;;4836665;29;39072;-55
2022/07/24 02:57:44;;;;;;;9.18;4.28;;;16.00;99.90;;;;;;4836156;29;38406;-55
2022/07/24 03:00:14;;;;;;;7.60;4.28;;;15.90;99.90;;;;;;4836678;29;36334;-55
2022/07/24 03:02:42;;;;;;;8.73;4.18;;;15.90;99.90;;;;;;4835549;29;37524;-55
2022/07/24 03:05:11;;;;;;;8.63;4.80;;;15.90;99.90;;;;;;4837060;29;39270;-55
2022/07/24 03:07:40;;;;;;;6.68;4.15;;;15.90;99.90;;;;;;4837086;29;38419;-55
2022/07/24 03:10:10;;;;;;;7.93;4.20;;;15.90;99.90;;;;;;4837577;29;37558;-55
2022/07/24 03:12:38;;;;;;;7.53;3.92;;;15.90;99.90;;;;;;4835888;29;36344;-55
2022/07/24 03:15:06;;;;;;;7.85;3.92;;;15.90;99.90;;;;;;4835996;29;39163;-55
2022/07/24 03:17:33;;;;;;;9.00;4.65;;;15.80;99.90;;;;;;4836100;29;39491;-55
2022/07/24 03:20:02;;;;;;;6.05;4.25;;;15.80;99.90;;;;;;4836049;29;36570;-55
2022/07/24 03:22:30;;;;;;;6.70;4.25;;;15.80;99.90;;;;;;4836677;29;38618;-55
2022/07/24 03:24:58;;;;;;;8.00;4.95;;;15.80;99.90;;;;;;4835984;29;39139;-55
2022/07/24 03:27:25;;;;;;;8.68;4.38;;;15.80;99.90;;;;;;4836098;29;38082;-55
2022/07/24 03:29:52;;;;;;;6.72;4.20;;;15.80;99.90;;;;;;4836479;29;36578;-55
2022/07/24 03:32:20;;;;;;;8.63;5.53;;;15.90;99.90;;;;;;4835397;29;36276;-55
2022/07/24 03:34:47;;;;;;;7.38;4.80;;;15.90;99.90;;;;;;4836140;29;38985;-55
2022/07/24 03:37:14;;;;;;;6.70;4.95;;;16.00;99.90;;;;;;4836856;29;38888;-55
2022/07/24 03:39:43;;;;;;;7.38;4.90;;;16.00;99.90;;;;;;4836931;29;35358;-55
2022/07/24 03:42:10;;;;;;;7.38;5.30;;;16.10;99.90;;;;;;4836089;29;36602;-55
2022/07/24 03:44:37;;;;;;;8.50;5.32;;;16.10;99.90;;;;;;4835607;29;38995;-55
2022/07/24 03:47:05;;;;;;;10.13;5.30;;;16.10;99.90;;;;;;4836079;29;37762;-55
2022/07/24 03:49:32;;;;;;;6.15;4.50;;;16.20;99.90;;;;;;4836307;29;36279;-55
2022/07/24 03:52:00;;;;;;;7.10;5.18;;;16.30;99.90;;;;;;4834601;29;38232;-55
2022/07/24 03:54:27;;;;;;;9.05;5.93;;;16.30;99.90;;;;;;4835050;29;38957;-55
2022/07/24 03:56:56;;;;;;;8.07;5.53;;;16.30;99.90;;;;;;4835372;29;37779;-55
2022/07/24 03:59:24;;;;;;;8.88;5.45;;;16.30;99.90;;;;;;4835092;29;36968;-55
2022/07/24 04:01:51;;;;;;;7.93;5.65;;;16.30;99.90;;;;;;4835712;29;39229;-55
2022/07/24 04:04:18;;;;;;;8.50;5.20;;;16.40;99.90;;;;;;4835395;29;39572;-55
2022/07/24 04:06:46;;;;;;;10.52;5.35;;;16.40;99.90;;;;;;4835557;29;37473;-55
2022/07/24 04:09:14;;;;;;;7.05;5.35;;;16.40;99.90;;;;;;4836443;29;37477;-55
2022/07/24 04:11:44;;;;;;;7.72;5.18;;;16.50;99.90;;;;;;4835764;29;37402;-55
2022/07/24 04:14:12;;;;;;;8.65;5.10;;;16.50;99.90;;;;;;4834540;29;36871;-55
2022/07/24 04:16:40;;;;;;;7.63;5.40;;;16.50;99.90;;;;;;4836274;29;37909;-55
2022/07/24 04:19:07;;;;;;;8.65;5.50;;;16.50;99.90;;;;;;4835058;29;38228;-55
2022/07/24 04:21:35;;;;;;;9.27;5.40;;;16.60;99.90;;;;;;4835889;29;38143;-55
2022/07/24 04:24:02;;;;;;;9.25;5.47;;;16.60;99.90;;;;;;4834426;29;37821;-55
2022/07/24 04:26:30;;;;;;;7.53;5.60;;;16.60;99.90;;;;;;4835787;29;37575;-55
2022/07/24 04:28:57;;;;;;;8.77;5.20;;;16.60;99.90;;;;;;4835765;29;36626;-55
2022/07/24 04:31:26;;;;;;;8.55;6.07;;;16.70;99.90;;;;;;4835218;29;35610;-55
2022/07/24 04:33:53;;;;;;;7.85;5.60;;;16.70;99.90;;;;;;4835309;29;38362;-55
2022/07/24 04:36:21;;;;;;;7.50;5.43;;;16.70;99.90;;;;;;4835123;29;37790;-55
2022/07/24 04:38:49;;;;;;;8.88;5.35;;;16.70;99.90;;;;;;4835797;29;20214;-55
2022/07/24 04:41:17;;;;;;;9.35;5.70;;;16.80;99.90;;;;;;4834167;29;37763;-55
2022/07/24 04:43:44;;;;;;;8.43;5.70;;;16.80;99.90;;;;;;4834791;29;37857;-55
2022/07/24 04:46:12;;;;;;;7.70;5.70;;;16.90;99.90;;;;;;4835748;29;38522;-55
2022/07/24 04:48:40;;;;;;;8.57;5.30;;;16.90;99.90;;;;;;4835893;29;37578;-55
2022/07/24 04:51:08;;;;;;;7.45;5.00;;;16.90;99.90;;;;;;4834295;29;37709;-55
2022/07/24 04:53:35;;;;;;;8.30;5.28;;;16.90;99.90;;;;;;4834099;29;37951;-55
2022/07/24 04:56:03;;;;;;;7.10;5.70;;;16.90;99.90;;;;;;4835069;29;38694;-55
2022/07/24 04:58:31;;;;;;;8.52;5.82;;;17.10;99.90;;;;;;4834961;29;36630;-55
2022/07/24 05:00:59;;;;;;;8.15;5.63;;;17.10;99.90;;;;;;4834262;29;36579;-55
2022/07/24 05:03:27;;;;;;;8.55;5.68;;;17.20;99.90;;;;;;4835060;29;38444;-55
2022/07/24 05:05:56;;;;;;;8.20;5.90;;;17.40;99.90;;;;;;4835270;29;36451;-55
2022/07/24 05:08:23;;;;;;;7.70;5.88;;;17.50;99.90;;;;;;4835626;29;36451;-54
2022/07/24 05:10:50;;;;;;;8.13;5.47;;;17.60;99.90;;;;;;4834408;29;38542;-55
2022/07/24 05:13:18;;;;;;;7.70;5.93;;;17.70;99.90;;;;;;4834345;29;39359;-55
2022/07/24 05:15:45;;;;;;;7.28;5.38;;;17.80;99.90;;;;;;4834447;29;39308;-55
2022/07/24 05:18:13;;;;;;;8.00;5.13;;;17.80;99.90;;;;;;4835343;29;37777;-55
2022/07/24 05:20:41;;;;;;;8.88;6.28;;;17.70;99.90;;;;;;4834756;29;38101;-55
2022/07/24 05:23:09;;;;;;;7.65;5.65;;;17.70;99.90;;;;;;4834819;29;37153;-55
2022/07/24 05:25:36;;;;;;;7.43;5.47;;;17.70;99.90;;;;;;4833793;29;37627;-55
2022/07/24 05:28:04;;;;;;;7.88;5.68;;;17.80;99.90;;;;;;4834511;29;36760;-55
2022/07/24 05:30:32;;;;;;;9.05;5.90;;;17.80;99.90;;;;;;4833038;29;38391;-55
2022/07/24 05:32:59;;;;;;;9.27;6.47;;;17.80;99.90;;;;;;4834471;29;38869;-55
2022/07/24 05:35:26;;;;;;;8.27;6.05;;;17.80;99.90;;;;;;4834457;29;37080;-55
2022/07/24 05:37:54;;;;;;;13.48;5.63;;;17.80;99.90;;;;;;4835428;29;37104;-55
2022/07/24 05:40:23;;;;;;;10.25;5.97;;;17.90;99.90;;;;;;4834520;29;37278;-55
2022/07/24 05:42:50;;;;;;;8.05;5.70;;;17.90;99.90;;;;;;4833788;29;36979;-55
2022/07/24 05:45:17;;;;;;;8.57;6.45;;;17.90;99.90;;;;;;4834774;29;37458;-55
2022/07/24 05:47:45;;;;;;;8.13;6.05;;;17.90;99.90;;;;;;4835340;29;36816;-55
2022/07/24 05:50:14;;;;;;;10.35;6.50;;;17.90;99.90;;;;;;4838255;29;36447;-55
2022/07/24 05:52:42;;;;;;;10.48;6.82;;;18.00;99.90;;;;;;4834379;29;38240;-55
2022/07/24 05:55:10;;;;;;;13.02;6.70;;;18.00;99.90;;;;;;4836776;29;38567;-55
2022/07/24 05:57:38;;;;;;;8.77;6.38;;;18.20;99.90;;;;;;4837671;29;35394;-55
2022/07/24 06:00:07;;;;;;;9.60;6.45;;;18.40;99.90;;;;;;4837602;29;39021;-55
2022/07/24 06:02:35;;;;;;;10.57;6.53;;;18.70;99.90;;;;;;4836896;29;37663;-55
2022/07/24 06:05:02;;;;;;;10.52;5.80;;;18.90;99.90;;;;;;4837913;29;38019;-55
2022/07/24 06:07:30;;;;;;;9.27;6.05;;;19.20;99.90;;;;;;4837305;29;37127;-55
2022/07/24 06:09:57;;;;;;;12.15;7.28;;;19.40;99.90;;;;;;4838273;29;37946;-55
2022/07/24 06:12:24;;;;;;;12.00;6.55;;;19.50;99.90;;;;;;4837713;29;39526;-55
2022/07/24 06:14:53;;;;;;;9.82;6.70;;;19.60;99.90;;;;;;4837703;29;38593;-55
2022/07/24 06:17:20;;;;;;;10.18;7.25;;;19.70;99.90;;;;;;4837439;29;36557;-55
2022/07/24 06:19:47;;;;;;;9.68;7.22;;;19.80;99.90;;;;;;4837335;29;36152;-55
2022/07/24 06:22:15;;;;;;;10.68;6.90;;;19.90;99.90;;;;;;4835959;29;38844;-55
2022/07/24 06:24:42;;;;;;;11.38;7.35;;;19.90;99.90;;;;;;4837787;29;36603;-55
2022/07/24 06:27:09;;;;;;;12.43;7.05;;;20.00;99.90;;;;;;4836292;29;36898;-55
2022/07/24 06:29:37;;;;;;;10.23;7.22;;;20.00;99.90;;;;;;4837582;29;37813;-55
2022/07/24 06:32:06;;;;;;;13.23;7.95;;;20.10;99.90;;;;;;4836323;29;36881;-55
2022/07/24 06:34:33;;;;;;;10.43;7.07;;;20.20;99.90;;;;;;4837590;29;38623;-55
2022/07/24 06:37:01;;;;;;;10.63;7.35;;;20.40;99.90;;;;;;4836711;29;37117;-55
2022/07/24 06:39:28;;;;;;;12.48;7.75;;;20.60;99.90;;;;;;4838227;29;38021;-55
2022/07/24 06:41:56;;;;;;;12.40;7.97;;;20.70;99.90;;;;;;4836527;29;39027;-55
2022/07/24 06:44:23;;;;;;;11.80;7.70;;;20.80;99.90;;;;;;4837036;29;36513;-55
2022/07/24 06:46:51;;;;;;;9.35;7.15;;;20.80;99.90;;;;;;4837175;29;36323;-55
2022/07/24 06:49:19;;;;;;;10.90;8.02;;;20.80;99.90;;;;;;4837217;29;37327;-56
2022/07/24 06:51:47;;;;;;;9.32;7.32;;;20.80;99.90;;;;;;4835879;29;38030;-55
2022/07/24 06:54:15;;;;;;;11.38;8.20;;;20.80;99.90;;;;;;4836698;29;35929;-55
2022/07/24 06:56:42;;;;;;;12.50;8.43;;;20.90;99.90;;;;;;4835568;29;37727;-55
2022/07/24 06:59:09;;;;;;;18.67;8.70;;;20.90;99.90;;;;;;4833841;29;37786;-55
2022/07/24 07:01:37;;;;;;;11.77;7.93;;;20.90;99.90;;;;;;4833985;29;37117;-56
2022/07/24 07:04:04;;;;;;;13.05;9.15;;;20.90;99.90;;;;;;4834693;29;38672;-55
2022/07/24 07:06:33;;;;;;;13.52;8.70;;;20.90;99.70;;;;;;4834275;29;36477;-55
2022/07/24 07:09:01;;;;;;;12.20;8.65;;;21.00;99.80;;;;;;4836723;29;38716;-55
2022/07/24 07:11:28;;;;;;;12.63;9.00;;;21.00;99.80;;;;;;4836675;29;40144;-56
2022/07/24 07:13:56;;;;;;;11.30;8.45;;;21.00;99.80;;;;;;4836349;29;37203;-56
2022/07/24 07:16:23;;;;;;;10.10;8.02;;;21.00;99.70;;;;;;4836665;29;37384;-56
2022/07/24 07:18:51;;;;;;;12.13;7.78;;;20.90;99.60;;;;;;4836909;29;36226;-55
2022/07/24 07:21:18;;;;;;;10.55;7.30;;;20.90;99.80;;;;;;4837737;29;38335;-56
2022/07/24 07:23:46;;;;;;;13.77;8.50;;;20.90;99.90;;;;;;4836937;29;39060;-55
2022/07/24 07:26:14;;;;;;;10.95;7.40;;;21.00;99.90;;;;;;4837932;29;36822;-56
2022/07/24 07:28:41;;;;;;;13.77;7.80;;;21.10;99.90;;;;;;4838057;29;36507;-56
2022/07/24 07:31:09;;;;;;;10.52;7.03;;;21.30;99.90;;;;;;4838024;29;39207;-55
2022/07/24 07:33:36;;;;;;;9.70;6.45;;;21.40;99.90;;;;;;4837626;29;38067;-56
2022/07/24 07:36:04;;;;;;;9.02;5.78;;;21.50;99.90;;;;;;4837885;29;35251;-56
2022/07/24 07:38:31;;;;;;;6.75;5.28;;;21.60;99.70;;;;;;4835335;29;37577;-55
2022/07/24 07:41:00;;;;;;;9.15;5.65;;;21.60;99.70;;;;;;4835653;29;38174;-55
2022/07/24 07:43:27;;;;;;;9.27;4.50;;;21.60;99.50;;;;;;4835232;29;40542;-55
2022/07/24 07:45:55;;;;;;;6.72;4.63;;;21.50;99.50;;;;;;4834900;29;36252;-56
2022/07/24 07:48:22;;;;;;;8.63;4.63;;;21.40;99.50;;;;;;4836797;29;40612;-56
2022/07/24 07:50:49;;;;;;;7.95;4.60;;;21.40;99.70;;;;;;4836480;29;38335;-56
2022/07/24 07:53:18;;;;;;;8.60;4.55;;;21.30;99.60;;;;;;4835027;29;36639;-55
2022/07/24 07:55:48;;;;;;;7.63;4.18;;;21.30;99.70;;;;;;4836137;29;35321;-55
2022/07/24 07:58:16;;;;;;;6.40;4.28;;;21.20;99.80;;;;;;4835027;29;39609;-56
2022/07/24 08:00:44;;;;;;;8.63;4.85;;;21.20;99.90;;;;;;4836551;29;38353;-55
2022/07/24 08:03:12;;;;;;;6.72;4.80;;;21.20;99.90;;;;;;4835181;29;37537;-56
2022/07/24 08:05:39;;;;;;;7.80;4.90;;;21.30;99.90;;;;;;4835732;29;36421;-56
2022/07/24 08:08:07;;;;;;;7.22;4.75;;;21.30;99.90;;;;;;4836277;29;38265;-55
2022/07/24 08:10:34;;;;;;;8.68;4.60;;;21.40;99.90;;;;;;4836142;29;38865;-55
2022/07/24 08:13:01;;;;;;;8.38;4.85;;;21.50;99.90;;;;;;4836658;29;37208;-55
2022/07/24 08:15:30;;;;;;;11.80;5.10;;;21.60;99.90;;;;;;4837034;29;37064;-56
2022/07/24 08:17:59;;;;;;;9.95;4.57;;;21.70;99.90;;;;;;4837052;29;38598;-56
2022/07/24 08:20:27;;;;;;;13.30;4.72;;;21.70;99.90;;;;;;4837093;29;38119;-56
2022/07/24 08:22:55;;;;;;;8.38;4.05;;;21.80;99.90;;;;;;4835028;29;38689;-55
2022/07/24 08:25:23;;;;;;;7.13;3.90;;;21.70;99.90;;;;;;4834947;29;36561;-55
2022/07/24 08:27:50;;;;;;;7.13;4.47;;;21.80;99.90;;;;;;4836926;29;36315;-56
2022/07/24 08:30:17;;;;;;;7.60;3.85;;;21.90;99.90;;;;;;4835979;29;38155;-56
2022/07/24 08:32:46;;;;;;;7.05;4.03;;;21.90;99.90;;;;;;4836392;29;38176;-56
2022/07/24 08:35:15;;;;;;;8.65;4.18;;;21.90;99.90;;;;;;4833995;29;37545;-55
2022/07/24 08:37:43;;;;;;;6.60;4.38;;;21.90;99.90;;;;;;4836290;29;38437;-56
2022/07/24 08:40:11;;;;;;;8.65;3.78;;;21.90;99.90;;;;;;4836941;29;38155;-56
2022/07/24 08:42:39;;;;;;;7.25;3.78;;;21.90;99.90;;;;;;4835944;29;37829;-55
2022/07/24 08:45:08;;;;;;;7.60;3.70;;;21.90;99.90;;;;;;4834882;29;35182;-56
2022/07/24 08:47:37;;;;;;;6.78;3.17;;;22.00;99.90;;;;;;4835970;29;36284;-56
2022/07/24 08:50:07;;;;;;;6.68;3.58;;;22.00;99.90;;;;;;4834515;29;38179;-56
2022/07/24 08:52:36;;;;;;;6.20;3.72;;;22.00;99.90;;;;;;4836796;29;36325;-56
2022/07/24 08:55:04;;;;;;;7.88;3.30;;;22.00;99.90;;;;;;4836224;29;35359;-56
2022/07/24 08:57:31;;;;;;;6.25;3.30;;;22.00;99.90;;;;;;4836668;29;37203;-55
2022/07/24 08:59:59;;;;;;;7.53;3.13;;;22.10;99.90;;;;;;4836312;29;37937;-55
2022/07/24 09:02:27;;;;;;;6.82;3.28;;;22.20;99.90;;;;;;4837213;29;37702;-56
2022/07/24 09:04:59;;;;;;;8.82;3.88;;;22.30;99.60;;;;;;4835800;29;36292;-56
2022/07/24 09:07:29;;;;;;;9.27;4.10;;;22.30;99.30;;;;;;4835907;29;37779;-56
2022/07/24 09:10:01;;;;;;;6.50;3.83;;;22.30;99.30;;;;;;4829578;29;38785;-56
2022/07/24 09:12:33;;;;;;;8.85;3.60;;;22.40;99.30;;;;;;4832516;29;36353;-55
2022/07/24 09:15:02;;;;;;;5.57;2.80;;;22.40;99.10;;;;;;4832056;29;37229;-55
2022/07/24 09:17:29;;;;;;;6.68;3.42;;;22.50;98.80;;;;;;4831724;29;39520;-55
2022/07/24 09:19:59;;;;;;;9.75;3.65;;;22.70;98.50;;;;;;4830865;29;38845;-55
2022/07/24 09:22:34;;;;;;;6.25;2.90;;;22.80;98.60;;;;;;4832111;29;37411;-55
2022/07/24 09:25:07;;;;;;;5.85;2.90;;;23.00;98.10;;;;;;4834510;29;36557;-55
2022/07/24 09:27:35;;;;;;;5.95;3.20;;;23.30;97.90;;;;;;4835347;29;37887;-55
2022/07/24 09:30:03;;;;;;;7.18;3.55;;;23.50;97.70;;;;;;4833171;29;38258;-55
2022/07/24 09:32:31;;;;;;;5.38;3.05;;;23.60;97.60;;;;;;4834838;29;37881;-55
2022/07/24 09:34:59;;;;;;;6.22;2.90;;;23.60;97.20;;;;;;4834759;29;36696;-56
2022/07/24 09:37:29;;;;;;;9.38;3.30;;;23.60;97.30;;;;;;4837362;29;36386;-56
2022/07/24 09:40:10;;;;;;;7.18;3.05;;;23.70;97.50;;;;;;4837640;29;38092;-56
2022/07/24 09:42:42;;;;;;;7.03;3.05;;;23.80;97.20;;;;;;4838833;29;36418;-56
2022/07/24 09:45:10;;;;;;;7.72;2.95;;;23.80;97.10;;;;;;4838687;29;35256;-56
2022/07/24 09:47:38;;;;;;;5.05;3.05;;;23.80;96.90;;;;;;4839192;29;36289;-56
2022/07/24 09:50:17;;;;;;;9.13;2.72;;;23.90;97.00;;;;;;4839061;29;39061;-56
2022/07/24 09:52:46;;;;;;;5.28;2.70;;;24.00;97.00;;;;;;4838501;29;39289;-56
2022/07/24 09:55:24;;;;;;;6.25;2.88;;;24.10;97.10;;;;;;4839115;29;36653;-56
2022/07/24 09:57:52;;;;;;;6.78;2.90;;;24.30;97.00;;;;;;4838079;29;37614;-56
2022/07/24 10:00:20;;;;;;;5.10;2.42;;;24.30;96.60;;;;;;4833145;29;38900;-57
2022/07/24 10:02:50;;;;;;;6.22;2.60;;;24.20;96.50;;;;;;4832742;29;37702;-56
2022/07/24 10:05:19;;;;;;;5.05;2.42;;;24.20;95.90;;;;;;4834676;29;36637;-57
2022/07/24 10:07:49;;;;;;;4.55;2.55;;;24.10;95.90;;;;;;4833361;29;40426;-57
2022/07/24 10:10:17;;;;;;;5.65;2.80;;;24.00;95.60;;;;;;4834610;29;38151;-56
2022/07/24 10:12:47;;;;;;;5.32;2.40;;;24.00;95.50;;;;;;4835007;29;36496;-56
2022/07/24 10:15:15;;;;;;;7.65;2.75;;;23.80;95.50;;;;;;4834618;29;36573;-56
2022/07/24 10:18:09;;;;;;;6.55;2.72;;;23.70;95.70;;;;;;4834307;29;38824;-57
2022/07/24 10:20:41;;;;;;;4.00;2.25;;;23.70;96.00;;;;;;4833563;29;38167;-59
2022/07/24 10:23:21;;;;;;;5.85;2.70;;;23.60;96.10;;;;;;4834723;29;38327;-56
2022/07/24 10:25:55;;;;;;;7.28;2.88;;;23.60;95.80;;;;;;4834970;29;38563;-56
2022/07/24 10:28:40;;;;;;;7.60;2.60;;;23.60;95.50;;;;;;4832407;29;37906;-57
2022/07/24 10:31:09;;;;;;;6.32;3.03;;;23.60;95.90;;;;;;4833098;29;36927;-57
2022/07/24 10:33:38;;;;;;;6.03;2.60;;;23.70;95.90;;;;;;4832839;29;36490;-57
2022/07/24 10:36:15;;;;;;;5.80;2.60;;;23.70;96.10;;;;;;4833063;29;37575;-56
2022/07/24 10:38:52;;;;;;;4.75;1.92;;;23.80;96.10;;;;;;4834045;29;37422;-56
2022/07/24 10:41:25;;;;;;;5.28;2.33;;;24.00;96.20;;;;;;4832727;29;36810;-56
2022/07/24 10:44:17;;;;;;;4.60;2.20;;;24.00;95.50;;;;;;4831886;29;36596;-56
2022/07/24 10:47:02;;;;;;;3.50;2.03;;;24.00;95.40;;;;;;4833170;29;35486;-56
2022/07/24 10:49:46;;;;;;;5.90;2.20;;;24.20;95.80;;;;;;4832433;29;37616;-57
2022/07/24 10:52:23;;;;;;;6.72;2.40;;;24.20;95.40;;;;;;4833220;29;38583;-56
2022/07/24 10:55:21;;;;;;;5.75;2.70;;;24.30;95.20;;;;;;4830927;29;39093;-56
2022/07/24 10:57:54;;;;;;;8.32;2.85;;;24.30;94.60;;;;;;4832728;29;36351;-57
2022/07/24 11:00:26;;;;;;;6.20;3.05;;;24.30;94.70;;;;;;4831422;29;37098;-56
2022/07/24 11:03:01;;;;;;;7.15;2.80;;;24.40;94.30;;;;;;4831592;29;38381;-57
2022/07/24 11:05:31;;;;;;;5.78;2.30;;;24.50;94.00;;;;;;4831913;29;36365;-56
2022/07/24 11:08:31;;;;;;;10.20;2.88;;;24.60;94.00;;;;;;4832202;29;38189;-56
2022/07/24 11:11:06;;;;;;;6.07;2.53;;;24.60;93.70;;;;;;4831421;29;36264;-57
2022/07/24 11:13:53;;;;;;;10.45;2.88;;;24.70;93.60;;;;;;4832537;29;38405;-57
2022/07/24 11:16:29;;;;;;;6.10;2.78;;;24.80;93.60;;;;;;4831591;29;37634;-57
2022/07/24 11:19:26;;;;;;;6.70;2.60;;;25.00;93.70;;;;;;4832223;29;35292;-57
2022/07/24 11:22:10;;;;;;;7.55;2.50;;;25.10;93.60;;;;;;4832686;29;37850;-58
2022/07/24 11:25:00;;;;;;;4.35;2.35;;;25.30;92.90;;;;;;4829543;29;39092;-59
2022/07/24 11:27:59;;;;;;;4.53;2.22;;;25.20;92.40;;;;;;4831511;29;38132;-59
2022/07/24 11:30:30;;;;;;;7.47;2.55;;;25.20;92.20;;;;;;4828683;29;37053;-59
2022/07/24 11:32:58;;;;;;;6.43;2.42;;;25.20;92.30;;;;;;4831850;29;37307;-59
2022/07/24 11:35:32;;;;;;;12.60;2.80;;;25.30;92.00;;;;;;4831458;29;38121;-59
2022/07/24 11:38:05;;;;;;;7.82;2.95;;;25.30;92.10;;;;;;4832002;29;38003;-59
2022/07/24 11:40:33;;;;;;;6.00;2.63;;;25.30;92.20;;;;;;4831947;29;38932;-59
2022/07/24 11:43:05;;;;;;;5.72;2.85;;;25.40;92.30;;;;;;4830910;29;37964;-59
2022/07/24 11:45:33;;;;;;;6.07;2.22;;;25.40;92.40;;;;;;4837492;29;38099;-59
2022/07/24 11:48:00;;;;;;;7.38;2.60;;;25.50;92.80;;;;;;4840161;29;38567;-58
2022/07/24 11:50:32;;;;;;;7.55;2.63;;;25.60;92.40;;;;;;4840028;29;37264;-59
2022/07/24 11:52:59;;;;;;;4.75;2.30;;;25.70;92.40;;;;;;4840827;29;37725;-59
2022/07/24 11:55:27;;;;;;;9.05;2.42;;;25.70;91.80;;;;;;4841101;29;39020;-59
2022/07/24 11:57:58;;;;;;;5.57;2.25;;;25.70;91.50;;;;;;4841422;29;37838;-59
2022/07/24 12:00:28;;;;;;;5.00;2.50;;;25.70;91.50;;;;;;4842873;29;37520;-59
2022/07/24 12:02:58;;;;;;;6.30;2.50;;;25.80;91.70;;;;;;4844211;29;36235;-59
2022/07/24 12:05:26;;;;;;;6.03;2.20;;;25.80;91.30;;;;;;4845002;29;37205;-59
2022/07/24 12:07:57;;;;;;;5.30;2.10;;;25.70;91.20;;;;;;4844323;29;39545;-59
2022/07/24 12:10:25;;;;;;;5.65;2.22;;;25.70;91.00;;;;;;4845131;29;38102;-56
2022/07/24 12:12:54;;;;;;;4.47;2.10;;;25.70;90.90;;;;;;4844435;29;38058;-57
2022/07/24 12:15:22;;;;;;;3.90;1.85;;;25.70;91.00;;;;;;4844713;29;38048;-57
2022/07/24 12:18:01;;;;;;;4.47;2.08;;;25.70;90.70;;;;;;4843976;29;36355;-57
2022/07/24 12:20:31;;;;;;;4.32;2.15;;;25.70;90.20;;;;;;4844281;29;37919;-57
2022/07/24 12:22:59;;;;;;;6.45;2.15;;;25.80;90.00;;;;;;4843426;29;39621;-57
2022/07/24 12:25:28;;;;;;;5.10;2.53;;;25.80;90.00;;;;;;4845285;29;38849;-57
2022/07/24 12:28:04;;;;;;;5.25;2.40;;;25.80;90.60;;;;;;4845025;29;39220;-58
2022/07/24 12:30:34;;;;;;;3.70;2.17;;;25.80;88.20;;;;;;4844349;29;37094;-57
2022/07/24 12:33:05;;;;;;;5.97;2.47;;;25.80;88.60;;;;;;4844604;29;38496;-58
2022/07/24 12:35:34;;;;;;;5.00;2.20;;;25.80;88.70;;;;;;4844930;29;38145;-57
2022/07/24 12:38:03;;;;;;;6.70;2.42;;;25.80;88.10;;;;;;4843972;29;38398;-57
2022/07/24 12:40:34;;;;;;;4.50;2.15;;;25.70;88.10;;;;;;4842978;29;36253;-57
2022/07/24 12:43:05;;;;;;;5.03;2.33;;;25.60;87.60;;;;;;4843434;29;38192;-57
2022/07/24 12:45:32;;;;;;;6.38;2.13;;;25.60;88.20;;;;;;4843510;29;38939;-57
2022/07/24 12:48:19;;;;;;;8.57;2.25;;;25.50;88.60;;;;;;4842563;29;37906;-58
2022/07/24 12:51:11;;;;;;;5.68;2.28;;;25.50;88.60;;;;;;4843491;29;37058;-57
2022/07/24 12:53:41;;;;;;;5.18;2.40;;;25.40;88.20;;;;;;4830933;29;36240;-57
2022/07/24 12:56:14;;;;;;;5.35;2.35;;;25.40;88.40;;;;;;4844168;29;38613;-57